createdAt,value
2022-08-01T00:02:11.816Z,1.17
2022-08-01T00:07:13.727Z,1.10
2022-08-01T00:12:15.318Z,1.10
2022-08-01T00:17:17.069Z,1.02
2022-08-01T00:22:18.721Z,0.95
2022-08-01T00:27:20.354Z,1.10
2022-08-01T00:32:22.173Z,1.10
2022-08-01T00:37:23.811Z,1.00
2022-08-01T00:42:25.472Z,0.98
2022-08-01T00:47:27.089Z,0.93
2022-08-01T00:52:28.693Z,1.30
2022-08-01T00:58:02.426Z,0.98
2022-08-01T01:02:52.764Z,1.33
2022-08-01T01:08:00.371Z,1.13
2022-08-01T01:13:20.327Z,1.10
2022-08-01T01:18:25.762Z,1.40
2022-08-01T01:23:51.281Z,1.40
2022-08-01T01:29:04.999Z,1.08
2022-08-01T01:34:07.549Z,1.20
2022-08-01T01:39:09.566Z,1.20
2022-08-01T01:44:12.064Z,1.20
2022-08-01T01:49:14.773Z,1.20
2022-08-01T01:54:16.704Z,1.40
2022-08-01T01:59:25.908Z,1.23
2022-08-01T02:04:29.077Z,1.20
2022-08-01T02:09:33.051Z,1.25
2022-08-01T02:14:38.254Z,1.20
2022-08-01T02:19:40.111Z,1.20
2022-08-01T02:25:06.252Z,1.38
2022-08-01T02:30:09.613Z,1.35
2022-08-01T02:35:18.959Z,1.30
2022-08-01T02:40:21.103Z,1.10
2022-08-01T02:45:25.868Z,1.20
2022-08-01T02:50:30.721Z,1.50
2022-08-01T02:55:34.422Z,1.25
2022-08-01T03:00:37.105Z,1.33
2022-08-01T03:05:41.044Z,1.40
2022-08-01T03:10:45.447Z,1.50
2022-08-01T03:15:48.917Z,1.38
2022-08-01T03:20:52.123Z,1.30
2022-08-01T03:25:54.394Z,1.55
2022-08-01T03:30:56.601Z,1.50
2022-08-01T03:36:01.468Z,1.38
2022-08-01T03:41:09.393Z,1.42
2022-08-01T03:46:18.558Z,1.40
2022-08-01T03:51:23.794Z,1.45
2022-08-01T03:56:26.409Z,1.30
2022-08-01T04:01:30.399Z,1.17
2022-08-01T04:06:32.280Z,1.10
2022-08-01T04:11:35.560Z,1.48
2022-08-01T04:16:38.240Z,1.20
2022-08-01T04:21:39.801Z,1.40
2022-08-01T04:26:44.457Z,1.42
2022-08-01T04:31:49.054Z,1.40
2022-08-01T04:36:53.723Z,1.40
2022-08-01T04:41:59.072Z,1.92
2022-08-01T04:47:04.106Z,1.73
2022-08-01T04:52:07.423Z,1.77
2022-08-01T04:57:10.340Z,1.85
2022-08-01T05:02:19.673Z,1.92
2022-08-01T05:07:21.289Z,1.80
2022-08-01T05:12:22.922Z,1.77
2022-08-01T05:17:24.642Z,1.80
2022-08-01T05:22:26.819Z,1.67
2022-08-01T05:27:28.403Z,1.40
2022-08-01T05:32:32.912Z,1.30
2022-08-01T05:37:34.655Z,1.50
2022-08-01T05:42:36.351Z,1.30
2022-08-01T05:47:38.003Z,1.20
2022-08-01T05:52:44.821Z,1.35
2022-08-01T05:57:46.781Z,1.13
2022-08-01T06:02:48.675Z,1.40
2022-08-01T06:07:50.924Z,1.45
2022-08-01T06:12:53.241Z,1.45
2022-08-01T06:17:55.130Z,1.30
2022-08-01T06:22:56.741Z,1.40
2022-08-01T06:28:02.110Z,1.30
2022-08-01T06:33:04.037Z,1.42
2022-08-01T06:38:05.688Z,1.42
2022-08-01T06:43:07.344Z,1.50
2022-08-01T06:48:09.099Z,1.75
2022-08-01T06:53:10.905Z,2.08
2022-08-01T06:58:12.535Z,2.80
2022-08-01T07:03:14.213Z,2.53
2022-08-01T07:08:15.837Z,2.60
2022-08-01T07:13:24.090Z,2.78
2022-08-01T07:18:38.773Z,2.83
2022-08-01T07:23:45.787Z,3.45
2022-08-01T07:28:47.794Z,2.90
2022-08-01T07:33:49.745Z,2.65
2022-08-01T07:38:51.398Z,1.98
2022-08-01T07:43:57.320Z,1.60
2022-08-01T07:49:01.292Z,1.67
2022-08-01T07:54:03.301Z,1.63
2022-08-01T07:59:05.036Z,1.60
2022-08-01T08:04:07.070Z,1.50
2022-08-01T08:09:08.842Z,1.48
2022-08-01T08:14:11.143Z,1.30
2022-08-01T08:19:13.097Z,1.17
2022-08-01T08:24:20.544Z,1.30
2022-08-01T08:29:30.739Z,1.27
2022-08-01T08:34:33.037Z,1.10
2022-08-01T08:39:42.131Z,1.00
2022-08-01T08:44:44.529Z,0.90
2022-08-01T08:49:47.123Z,0.70
2022-08-01T08:54:52.479Z,0.85
2022-08-01T08:59:55.212Z,0.70
2022-08-01T09:04:57.696Z,0.60
2022-08-01T09:09:59.381Z,0.90
2022-08-01T09:15:01.221Z,0.98
2022-08-01T09:20:02.962Z,0.90
2022-08-01T09:25:13.344Z,0.82
2022-08-01T09:30:23.359Z,0.90
2022-08-01T09:35:45.495Z,0.70
2022-08-01T09:40:55.557Z,0.47
2022-08-01T09:45:58.511Z,0.50
2022-08-01T09:51:04.695Z,0.40
2022-08-01T09:56:12.795Z,0.30
2022-08-01T10:01:14.852Z,0.38
2022-08-01T10:06:24.956Z,0.40
2022-08-01T10:11:36.058Z,0.40
2022-08-01T10:16:39.545Z,0.40
2022-08-01T10:21:53.214Z,0.40
2022-08-01T10:27:08.256Z,0.30
2022-08-01T10:32:11.379Z,0.32
2022-08-01T10:37:14.178Z,0.20
2022-08-01T10:42:18.734Z,0.50
2022-08-01T10:47:51.079Z,0.35
2022-08-01T10:53:23.215Z,0.20
2022-08-01T10:58:42.483Z,0.30
2022-08-01T11:03:59.926Z,0.20
2022-08-01T11:09:16.836Z,0.20
2022-08-01T11:14:26.153Z,0.30
2022-08-01T11:20:07.819Z,0.20
2022-08-01T11:25:09.976Z,0.30
2022-08-01T11:30:15.139Z,0.28
2022-08-01T11:35:18.856Z,0.28
2022-08-01T11:40:25.177Z,0.30
2022-08-01T11:45:48.014Z,1.88
2022-08-01T11:50:54.212Z,0.80
2022-08-01T11:55:56.067Z,0.55
2022-08-01T12:00:59.299Z,0.50
2022-08-01T12:06:01.075Z,0.50
2022-08-01T12:11:04.841Z,0.40
2022-08-01T12:21:11.216Z,0.40
2022-08-01T12:26:29.241Z,0.30
2022-08-01T12:31:37.089Z,0.40
2022-08-01T12:36:39.500Z,0.30
2022-08-01T12:41:44.384Z,0.40
2022-08-01T12:46:46.453Z,0.33
2022-08-01T12:51:57.153Z,0.40
2022-08-01T12:56:59.407Z,0.50
2022-08-01T13:02:09.899Z,0.40
2022-08-01T13:07:11.673Z,0.20
2022-08-01T13:12:14.078Z,0.20
2022-08-01T13:17:31.324Z,0.20
2022-08-01T13:22:38.121Z,0.25
2022-08-01T13:27:39.757Z,0.30
2022-08-01T13:33:01.867Z,0.20
2022-08-01T13:38:03.455Z,0.17
2022-08-01T13:43:05.131Z,0.30
2022-08-01T13:48:12.897Z,0.25
2022-08-01T13:53:20.589Z,0.30
2022-08-01T13:58:22.362Z,0.20
2022-08-01T14:03:33.363Z,0.43
2022-08-01T14:08:35.569Z,0.30
2022-08-01T14:13:45.116Z,0.40
2022-08-01T14:18:48.678Z,0.40
2022-08-01T14:23:50.689Z,0.40
2022-08-01T14:28:52.259Z,0.50
2022-08-01T14:33:53.874Z,1.40
2022-08-01T14:38:55.492Z,2.97
2022-08-01T14:44:02.325Z,1.95
2022-08-01T14:49:04.358Z,0.80
2022-08-01T14:54:06.684Z,0.50
2022-08-01T14:59:20.936Z,0.40
2022-08-01T15:04:23.492Z,0.43
2022-08-01T15:09:25.086Z,0.32
2022-08-01T15:14:45.246Z,0.30
2022-08-01T15:19:48.595Z,0.40
2022-08-01T15:24:56.831Z,0.40
2022-08-01T15:29:59.120Z,0.30
2022-08-01T15:35:01.273Z,0.35
2022-08-01T15:40:03.697Z,0.30
2022-08-01T15:45:05.897Z,0.38
2022-08-01T15:50:07.985Z,0.30
2022-08-01T15:55:09.727Z,0.40
2022-08-01T16:00:13.396Z,0.43
2022-08-01T16:05:17.120Z,0.50
2022-08-01T16:10:22.182Z,0.30
2022-08-01T16:15:36.191Z,0.30
2022-08-01T16:20:45.099Z,0.52
2022-08-01T16:25:47.749Z,0.50
2022-08-01T16:31:12.653Z,0.30
2022-08-01T16:36:16.885Z,0.40
2022-08-01T16:41:19.582Z,0.40
2022-08-01T16:46:26.778Z,0.40
2022-08-01T16:51:28.611Z,0.40
2022-08-01T16:56:34.574Z,0.20
2022-08-01T17:01:58.417Z,0.70
2022-08-01T17:06:58.134Z,0.30
2022-08-01T17:12:00.089Z,0.40
2022-08-01T17:17:01.686Z,1.73
2022-08-01T17:22:03.905Z,0.60
2022-08-01T17:27:09.423Z,0.50
2022-08-01T17:32:14.497Z,0.60
2022-08-01T17:37:16.802Z,1.25
2022-08-01T17:42:18.533Z,0.22
2022-08-01T17:47:48.165Z,0.30
2022-08-01T17:52:46.500Z,0.30
2022-08-01T17:57:48.523Z,0.38
2022-08-01T18:02:50.196Z,0.35
2022-08-01T18:08:00.612Z,0.30
2022-08-01T18:13:04.176Z,0.32
2022-08-01T18:18:08.768Z,0.30
2022-08-01T18:23:11.351Z,0.30
2022-08-01T18:28:29.339Z,0.30
2022-08-01T18:33:35.441Z,0.30
2022-08-01T18:38:37.393Z,0.30
2022-08-01T18:43:46.591Z,0.60
2022-08-01T18:48:48.782Z,0.85
2022-08-01T18:53:52.951Z,1.10
2022-08-01T18:58:55.556Z,0.40
2022-08-01T19:03:58.020Z,0.50
2022-08-01T19:09:02.416Z,0.65
2022-08-01T19:14:04.442Z,0.40
2022-08-01T19:19:09.520Z,0.30
2022-08-01T19:24:17.322Z,0.50
2022-08-01T19:29:46.805Z,0.30
2022-08-01T19:35:12.912Z,0.40
2022-08-01T19:40:26.779Z,0.40
2022-08-01T19:45:29.904Z,0.47
2022-08-01T19:50:33.244Z,0.35
2022-08-01T19:55:39.698Z,0.35
2022-08-01T20:00:42.917Z,0.40
2022-08-01T20:05:45.074Z,0.43
2022-08-01T20:10:47.927Z,0.57
2022-08-01T20:15:52.040Z,0.30
2022-08-01T20:20:54.270Z,0.40
2022-08-01T20:26:00.555Z,0.40
2022-08-01T20:36:12.125Z,0.63
2022-08-01T20:41:27.923Z,0.90
2022-08-01T20:46:29.806Z,0.50
2022-08-01T20:51:31.857Z,0.60
2022-08-01T20:56:43.446Z,0.50
2022-08-01T21:02:17.191Z,0.55
2022-08-01T21:07:24.839Z,0.60
2022-08-01T21:12:30.893Z,0.50
2022-08-01T21:18:07.032Z,0.32
2022-08-01T21:23:27.611Z,0.45
2022-08-01T21:28:29.276Z,0.40
2022-08-01T21:33:31.173Z,0.77
2022-08-01T21:38:33.922Z,0.40
2022-08-01T21:43:37.051Z,0.57
2022-08-01T21:48:39.182Z,0.60
2022-08-01T21:54:18.404Z,0.50
2022-08-01T21:59:32.450Z,0.43
2022-08-01T22:04:48.468Z,0.52
2022-08-01T22:09:50.730Z,0.35
2022-08-01T22:14:55.922Z,0.50
2022-08-01T22:19:58.597Z,0.60
2022-08-01T22:25:00.638Z,0.60
2022-08-01T22:30:05.665Z,0.50
2022-08-01T22:35:12.728Z,0.50
2022-08-01T22:40:14.923Z,0.60
2022-08-01T22:45:19.651Z,0.80
2022-08-01T22:50:36.864Z,0.70
2022-08-01T22:55:58.643Z,0.60
2022-08-01T23:01:02.400Z,0.70
2022-08-01T23:06:10.561Z,0.68
2022-08-01T23:11:12.770Z,0.90
2022-08-01T23:16:17.502Z,0.82
2022-08-01T23:21:19.786Z,0.70
2022-08-01T23:26:23.555Z,0.80
2022-08-01T23:31:57.405Z,0.70
2022-08-01T23:36:48.661Z,0.77
2022-08-01T23:41:58.621Z,0.80
2022-08-01T23:47:01.570Z,0.60
2022-08-01T23:52:04.212Z,0.70
2022-08-01T23:57:05.886Z,0.90
